Time;durP1;ratioP1;P1;durP2;ratioP2;P2;SDS_P1;SDS_P2;PMS_P1;PMS_P2;Temp;Humidity;BMP_temperature;BMP_pressure;BME280_temperature;BME280_humidity;BME280_pressure;Samples;Min_cycle;Max_cycle;Signal;HPM_P1;HPM_P2
2021/09/17 00:01:31;;;;;;;4.60;1.80;;;;;;;16.34;76.81;100471.91;5051409;28;20037;-79
2021/09/17 00:03:57;;;;;;;3.25;1.80;;;;;;;16.34;77.39;100475.44;5045041;28;20047;-79
2021/09/17 00:06:22;;;;;;;4.38;1.60;;;;;;;16.36;77.11;100478.06;5041664;28;20061;-79
2021/09/17 00:08:47;;;;;;;5.10;2.00;;;;;;;16.31;76.83;100472.88;5046051;28;20064;-79
2021/09/17 00:11:13;;;;;;;5.00;2.10;;;;;;;16.31;77.21;100480.84;5052693;28;20063;-79
2021/09/17 00:13:38;;;;;;;4.75;2.00;;;;;;;16.32;77.29;100469.31;5047949;28;20037;-78
2021/09/17 00:16:04;;;;;;;5.32;2.20;;;;;;;16.35;77.28;100471.88;5042747;28;20116;-79
2021/09/17 00:18:29;;;;;;;4.63;1.90;;;;;;;16.30;77.28;100464.94;5043261;28;20037;-79
2021/09/17 00:20:55;;;;;;;4.88;1.88;;;;;;;16.35;77.22;100471.88;5043714;28;20056;-79
2021/09/17 00:23:20;;;;;;;5.78;2.10;;;;;;;16.38;77.11;100470.91;5042743;28;20029;-79
2021/09/17 00:25:46;;;;;;;4.50;2.10;;;;;;;16.32;77.70;100463.97;5044189;28;20494;-79
2021/09/17 00:28:11;;;;;;;5.70;2.13;;;;;;;16.36;77.56;100473.59;5042020;28;20060;-80
2021/09/17 00:30:37;;;;;;;4.60;2.28;;;;;;;16.40;77.23;100471.69;5044988;28;20037;-79
2021/09/17 00:33:03;;;;;;;4.15;1.77;;;;;;;16.39;77.62;100469.97;5041379;28;20041;-79
2021/09/17 00:35:28;;;;;;;6.65;2.35;;;;;;;16.38;77.23;100466.44;5032137;28;20091;-78
2021/09/17 00:37:54;;;;;;;6.63;2.30;;;;;;;16.42;77.03;100461.88;5041248;28;20491;-79
2021/09/17 00:40:20;;;;;;;5.28;2.28;;;;;;;16.36;77.54;100459.41;5044089;28;20733;-79
2021/09/17 00:42:45;;;;;;;4.82;2.40;;;;;;;16.47;77.11;100461.75;5041035;28;20045;-79
2021/09/17 00:45:12;;;;;;;6.28;2.38;;;;;;;16.45;76.79;100464.44;5043023;28;20120;-79
2021/09/17 00:47:39;;;;;;;6.40;2.60;;;;;;;16.44;76.68;100466.25;5042117;28;20043;-79
2021/09/17 00:50:06;;;;;;;7.75;2.42;;;;;;;16.42;76.86;100459.22;5042847;28;20140;-78
2021/09/17 00:52:32;;;;;;;5.10;1.95;;;;;;;16.39;77.16;100454.00;5041808;28;20040;-79
2021/09/17 00:54:58;;;;;;;6.28;1.70;;;;;;;16.39;76.66;100454.00;5042301;28;20033;-78
2021/09/17 00:57:24;;;;;;;6.00;2.13;;;;;;;16.38;76.87;100465.56;5042633;28;20033;-79
2021/09/17 00:59:49;;;;;;;5.30;2.28;;;;;;;16.37;76.75;100456.72;5041368;28;20033;-79
2021/09/17 01:02:14;;;;;;;4.25;1.70;;;;;;;16.35;76.39;100455.88;5042403;28;20491;-79
2021/09/17 01:04:40;;;;;;;3.20;1.88;;;;;;;16.35;76.48;100460.34;5040698;28;20384;-79
2021/09/17 01:07:06;;;;;;;5.13;1.75;;;;;;;16.41;76.27;100454.81;5044071;28;20099;-79
2021/09/17 01:09:32;;;;;;;4.80;1.85;;;;;;;16.43;76.27;100447.66;5040425;28;20045;-79
2021/09/17 01:12:03;;;;;;;6.00;2.03;;;;;;;16.39;76.49;100446.00;5044030;28;20032;-79
2021/09/17 01:14:31;;;;;;;3.67;1.70;;;;;;;16.35;76.69;100453.22;5022600;28;20037;-78
2021/09/17 01:16:56;;;;;;;6.70;1.80;;;;;;;16.31;76.59;100451.56;5044708;28;20407;-79
2021/09/17 01:19:22;;;;;;;6.30;1.80;;;;;;;16.36;76.38;100446.97;5031388;28;20032;-80
2021/09/17 01:21:55;;;;;;;4.25;1.98;;;;;;;16.31;76.55;100445.38;5045970;28;20060;-80
2021/09/17 01:24:21;;;;;;;3.97;1.58;;;;;;;16.27;76.34;100446.38;5045820;28;20426;-80
2021/09/17 01:26:46;;;;;;;5.10;1.95;;;;;;;16.29;76.92;100444.53;5042501;28;20029;-79
2021/09/17 01:29:11;;;;;;;6.90;2.10;;;;;;;16.31;76.62;100445.38;5045640;28;20403;-80
2021/09/17 01:31:37;;;;;;;5.57;2.35;;;;;;;16.26;77.12;100447.31;5042717;28;20044;-81
2021/09/17 01:34:09;;;;;;;6.55;2.30;;;;;;;16.30;76.73;100439.19;5035221;28;20029;-80
2021/09/17 01:36:34;;;;;;;3.72;2.20;;;;;;;16.25;76.82;100440.25;5043101;28;20052;-80
2021/09/17 01:39:00;;;;;;;8.43;2.70;;;;;;;16.32;76.61;100439.13;5044842;28;20488;-80
2021/09/17 01:41:25;;;;;;;6.45;2.17;;;;;;;16.27;76.86;100438.38;5043677;28;20039;-81
2021/09/17 01:43:50;;;;;;;8.95;3.03;;;;;;;16.28;76.73;100430.34;5044217;28;20099;-80
2021/09/17 01:46:16;;;;;;;6.65;2.22;;;;;;;16.27;76.95;100433.06;5042835;28;20041;-80
2021/09/17 01:48:41;;;;;;;5.25;2.40;;;;;;;16.28;76.93;100427.69;5044608;28;20040;-81
2021/09/17 01:51:06;;;;;;;6.38;2.70;;;;;;;16.32;76.62;100434.69;5058303;28;20072;-81
2021/09/17 01:53:34;;;;;;;5.55;2.25;;;;;;;16.33;76.70;100432.88;5048448;28;20136;-81
2021/09/17 01:56:00;;;;;;;4.60;2.20;;;;;;;16.32;76.58;100429.34;5045475;28;20127;-80
2021/09/17 01:58:26;;;;;;;7.15;2.80;;;;;;;16.32;76.70;100432.03;5049215;28;20052;-81
2021/09/17 02:00:51;;;;;;;4.28;2.00;;;;;;;16.31;76.90;100419.59;5035538;28;20036;-80
2021/09/17 02:03:16;;;;;;;5.82;2.17;;;;;;;16.36;76.91;100427.47;5043863;28;20024;-80
2021/09/17 02:05:42;;;;;;;6.10;2.08;;;;;;;16.27;76.86;100422.41;5042464;28;20030;-79
2021/09/17 02:08:07;;;;;;;7.68;2.63;;;;;;;16.32;76.81;100420.47;5045309;28;20087;-80
2021/09/17 02:10:33;;;;;;;6.50;1.90;;;;;;;16.29;76.99;100425.91;5043066;28;20044;-79
2021/09/17 02:12:58;;;;;;;5.28;1.95;;;;;;;16.24;77.17;100422.50;5035774;28;20159;-80
2021/09/17 02:15:24;;;;;;;6.80;2.83;;;;;;;16.26;77.35;100421.53;5039520;28;20073;-80
2021/09/17 02:17:49;;;;;;;5.45;2.47;;;;;;;16.28;77.26;100413.53;5045976;28;20040;-81
2021/09/17 02:20:14;;;;;;;3.58;1.77;;;;;;;16.29;76.93;100407.25;5050635;28;20093;-80
2021/09/17 02:22:40;;;;;;;5.10;2.25;;;;;;;16.25;77.11;100413.63;5047457;28;20075;-80
2021/09/17 02:25:06;;;;;;;3.33;1.73;;;;;;;16.24;77.41;100409.19;5052777;28;20115;-80
2021/09/17 02:27:31;;;;;;;5.03;2.20;;;;;;;16.30;77.32;100411.69;5048911;28;20037;-81
2021/09/17 02:29:57;;;;;;;5.10;1.65;;;;;;;16.30;77.29;100415.22;5045453;28;20083;-80
2021/09/17 02:32:22;;;;;;;5.75;1.92;;;;;;;16.32;76.80;100410.72;5045147;28;20089;-81
2021/09/17 02:34:48;;;;;;;4.43;1.90;;;;;;;16.32;77.14;100409.81;5048485;28;20641;-80
2021/09/17 02:37:13;;;;;;;6.55;1.95;;;;;;;16.37;76.75;100402.56;5045965;28;20127;-81
2021/09/17 02:39:39;;;;;;;7.13;1.92;;;;;;;16.30;77.23;100403.69;5019252;28;20056;-81
2021/09/17 02:42:05;;;;;;;5.47;2.00;;;;;;;16.28;77.29;100401.06;5049320;28;20024;-81
2021/09/17 02:44:31;;;;;;;4.25;1.90;;;;;;;16.27;76.94;100409.09;5049113;28;20502;-81
2021/09/17 02:46:57;;;;;;;6.68;2.20;;;;;;;16.30;77.08;100404.56;5050667;28;20076;-81
2021/09/17 02:49:22;;;;;;;5.93;1.90;;;;;;;16.31;76.89;100398.31;5050063;28;20491;-81
2021/09/17 02:51:48;;;;;;;6.53;2.50;;;;;;;16.28;76.93;100402.88;5047375;28;20029;-81
2021/09/17 02:54:13;;;;;;;10.25;2.53;;;;;;;16.28;76.66;100402.88;5047217;28;20030;-82
2021/09/17 02:56:38;;;;;;;4.35;1.85;;;;;;;16.17;76.97;100401.41;5047950;28;20056;-81
2021/09/17 02:59:04;;;;;;;4.68;2.05;;;;;;;16.22;77.02;100403.94;5044545;28;20112;-81
2021/09/17 03:01:29;;;;;;;5.20;2.33;;;;;;;16.20;76.78;100398.66;5052297;28;20082;-80
2021/09/17 03:03:54;;;;;;;6.45;2.47;;;;;;;16.27;76.85;100401.09;5022247;28;20064;-81
2021/09/17 03:06:22;;;;;;;4.03;1.65;;;;;;;16.27;76.68;100403.75;5027651;28;20099;-81
2021/09/17 03:08:48;;;;;;;4.25;2.15;;;;;;;16.33;76.15;100398.25;5047536;28;20033;-81
2021/09/17 03:11:13;;;;;;;5.68;2.35;;;;;;;16.26;75.95;100399.38;5045610;28;20503;-81
2021/09/17 03:13:39;;;;;;;3.88;2.05;;;;;;;16.34;76.32;100402.66;5037399;28;20041;-81
2021/09/17 03:16:05;;;;;;;3.67;2.28;;;;;;;16.30;75.84;100406.34;5028783;28;20084;-80
2021/09/17 03:18:31;;;;;;;6.07;2.30;;;;;;;16.32;75.56;100394.75;5049899;28;20029;-81
2021/09/17 03:20:57;;;;;;;7.63;2.13;;;;;;;16.33;75.71;100390.28;5050946;28;20069;-80
2021/09/17 03:23:22;;;;;;;6.47;2.08;;;;;;;16.35;75.82;100394.63;5049902;28;20068;-80
2021/09/17 03:25:48;;;;;;;4.70;1.92;;;;;;;16.32;75.97;100396.50;5049185;28;20029;-81
2021/09/17 03:28:13;;;;;;;4.22;2.00;;;;;;;16.35;75.49;100404.41;5044574;28;20049;-81
2021/09/17 03:30:39;;;;;;;6.53;2.17;;;;;;;16.35;75.64;100388.44;5047777;28;20479;-81
2021/09/17 03:33:04;;;;;;;6.32;2.03;;;;;;;16.39;75.70;100400.72;5043790;28;20025;-80
2021/09/17 03:35:30;;;;;;;5.18;1.55;;;;;;;16.41;75.77;100394.44;5047572;28;20405;-81
2021/09/17 03:37:55;;;;;;;5.65;1.98;;;;;;;16.38;75.52;100394.53;5060311;28;20032;-81
2021/09/17 03:40:20;;;;;;;6.53;2.35;;;;;;;16.34;75.76;100384.88;5033636;28;20523;-81
2021/09/17 03:42:46;;;;;;;4.45;2.15;;;;;;;16.33;75.76;100387.63;5045681;28;20041;-80
2021/09/17 03:45:11;;;;;;;3.53;1.77;;;;;;;16.31;75.72;100386.78;5045685;28;20048;-80
2021/09/17 03:47:37;;;;;;;3.47;1.80;;;;;;;16.30;76.20;100385.06;5053927;28;20032;-81
2021/09/17 03:50:05;;;;;;;4.05;1.83;;;;;;;16.34;75.91;100381.34;5049697;28;20524;-80
2021/09/17 03:52:30;;;;;;;4.35;1.85;;;;;;;16.28;76.09;100387.75;5046423;28;20120;-82
2021/09/17 03:54:55;;;;;;;6.50;2.42;;;;;;;16.35;75.85;100388.44;5046086;28;20079;-81
2021/09/17 03:57:21;;;;;;;4.80;1.75;;;;;;;16.29;76.12;100383.28;5051622;28;20033;-80
2021/09/17 03:59:46;;;;;;;4.63;1.98;;;;;;;16.28;76.14;100382.44;5029673;28;20118;-79
2021/09/17 04:02:11;;;;;;;5.80;1.92;;;;;;;16.29;76.01;100381.50;5044623;28;20040;-80
2021/09/17 04:04:39;;;;;;;4.65;2.30;;;;;;;16.30;76.18;100379.72;5050440;28;20036;-82
2021/09/17 04:07:05;;;;;;;4.35;2.08;;;;;;;16.33;76.14;100396.47;5047484;28;20480;-81
2021/09/17 04:09:30;;;;;;;4.95;2.20;;;;;;;16.25;75.93;100387.00;5045982;28;20124;-80
2021/09/17 04:11:55;;;;;;;3.92;1.95;;;;;;;16.28;76.28;100381.56;5045287;28;20037;-80
2021/09/17 04:14:21;;;;;;;4.32;2.33;;;;;;;16.24;75.91;100377.25;5046653;28;20152;-80
2021/09/17 04:16:46;;;;;;;6.40;2.33;;;;;;;16.20;76.14;100395.97;5045440;28;20041;-81
2021/09/17 04:19:12;;;;;;;4.10;2.08;;;;;;;16.21;75.99;100384.41;5046951;28;20103;-81
2021/09/17 04:21:37;;;;;;;7.25;2.20;;;;;;;16.16;76.27;100386.34;5046000;28;20035;-81
2021/09/17 04:24:03;;;;;;;4.57;1.77;;;;;;;16.13;76.25;100385.56;5047052;28;20041;-80
2021/09/17 04:26:28;;;;;;;5.10;1.98;;;;;;;16.16;75.91;100377.47;5058343;28;20090;-80
2021/09/17 04:28:53;;;;;;;5.00;2.10;;;;;;;16.14;75.58;100382.88;5048161;28;20072;-80
2021/09/17 04:31:19;;;;;;;5.25;2.47;;;;;;;16.12;75.46;100373.19;5050967;28;20033;-81
2021/09/17 04:33:44;;;;;;;5.82;2.53;;;;;;;16.12;75.42;100390.03;5047454;28;20033;-81
2021/09/17 04:36:09;;;;;;;4.10;2.22;;;;;;;16.07;75.95;100381.31;5026034;28;20029;-80
2021/09/17 04:38:35;;;;;;;7.43;2.28;;;;;;;16.02;76.42;100385.03;5024949;28;20041;-79
2021/09/17 04:41:00;;;;;;;5.22;2.38;;;;;;;16.03;76.52;100387.63;5049447;28;20037;-80
2021/09/17 04:43:27;;;;;;;6.35;2.55;;;;;;;15.98;77.07;100392.22;5034100;28;20040;-79
2021/09/17 04:45:53;;;;;;;5.50;3.10;;;;;;;15.89;77.50;100384.53;5053596;28;20028;-80
2021/09/17 04:48:19;;;;;;;6.22;2.28;;;;;;;15.95;77.69;100392.31;5048683;28;20512;-78
2021/09/17 04:50:44;;;;;;;6.13;2.28;;;;;;;15.92;77.60;100395.94;5035812;28;20064;-79
2021/09/17 04:53:10;;;;;;;6.05;2.85;;;;;;;15.88;77.72;100388.13;5050679;28;20040;-80
2021/09/17 04:55:36;;;;;;;4.47;2.28;;;;;;;15.92;77.99;100392.44;5039101;28;20201;-80
2021/09/17 04:58:03;;;;;;;6.43;2.35;;;;;;;15.90;77.93;100396.91;5064191;28;20029;-81
2021/09/17 05:00:28;;;;;;;3.80;2.20;;;;;;;15.96;77.76;100391.44;5048013;28;20056;-81
2021/09/17 05:02:54;;;;;;;6.35;2.40;;;;;;;15.92;77.72;100395.09;5049742;28;20093;-81
2021/09/17 05:05:20;;;;;;;6.68;2.72;;;;;;;15.94;77.40;100398.59;5033921;28;20057;-81
2021/09/17 05:07:45;;;;;;;5.18;2.70;;;;;;;15.87;77.32;100397.00;5037820;28;20465;-81
2021/09/17 05:10:11;;;;;;;4.38;2.20;;;;;;;15.87;77.56;100394.34;5043589;28;20555;-81
2021/09/17 05:12:36;;;;;;;5.18;2.85;;;;;;;15.83;77.27;100401.56;5046066;28;20483;-81
2021/09/17 05:15:02;;;;;;;4.63;2.95;;;;;;;15.84;77.24;100394.44;5043234;28;20041;-81
2021/09/17 05:17:27;;;;;;;10.38;4.10;;;;;;;15.88;77.32;100404.09;5045161;28;20084;-81
2021/09/17 05:19:53;;;;;;;8.73;3.58;;;;;;;15.80;77.75;100400.78;5027458;28;20048;-80
2021/09/17 05:22:18;;;;;;;6.63;3.17;;;;;;;15.80;77.81;100400.78;5044113;28;20038;-81
2021/09/17 05:24:43;;;;;;;5.20;3.00;;;;;;;15.85;77.80;100399.75;5043877;28;20506;-81
2021/09/17 05:27:14;;;;;;;5.93;2.40;;;;;;;15.90;77.77;100396.91;5028779;28;20037;-81
2021/09/17 05:29:40;;;;;;;4.97;2.40;;;;;;;15.94;77.53;100403.91;5033471;28;20124;-81
2021/09/17 05:32:06;;;;;;;4.75;2.35;;;;;;;15.87;77.61;100405.88;5042878;28;20120;-80
2021/09/17 05:34:31;;;;;;;6.63;2.40;;;;;;;15.80;77.84;100406.09;5045809;28;20093;-80
2021/09/17 05:36:56;;;;;;;5.50;1.98;;;;;;;15.61;79.11;100416.38;5042510;28;20037;-80
2021/09/17 05:39:22;;;;;;;4.57;1.90;;;;;;;15.52;79.77;100414.84;5046853;28;20033;-81
2021/09/17 05:41:47;;;;;;;4.80;1.90;;;;;;;15.47;80.46;100424.75;5043258;28;20037;-81
2021/09/17 05:44:13;;;;;;;5.53;2.00;;;;;;;15.31;81.54;100419.84;5046090;28;20057;-81
2021/09/17 05:46:38;;;;;;;5.50;1.92;;;;;;;15.38;81.35;100419.66;5044479;28;20073;-81
2021/09/17 05:49:03;;;;;;;6.60;2.10;;;;;;;15.38;81.45;100419.66;5049384;28;20037;-81
2021/09/17 05:51:29;;;;;;;5.25;2.00;;;;;;;15.41;81.10;100420.47;5048103;28;20040;-81
2021/09/17 05:53:54;;;;;;;7.45;2.28;;;;;;;15.34;81.55;100418.91;5053630;28;20029;-81
2021/09/17 05:56:19;;;;;;;6.80;2.20;;;;;;;15.37;81.69;100412.63;5048233;28;20092;-81
2021/09/17 05:58:45;;;;;;;5.57;2.92;;;;;;;15.26;82.69;100427.09;5048044;28;20072;-81
2021/09/17 06:01:10;;;;;;;7.40;3.60;;;;;;;15.01;85.08;100433.94;5046759;28;20451;-81
2021/09/17 06:03:36;;;;;;;9.75;4.18;;;;;;;14.81;86.92;100418.53;5052222;28;20470;-80
2021/09/17 06:06:01;;;;;;;12.55;4.57;;;;;;;14.71;88.53;100423.19;5055721;28;20498;-80
2021/09/17 06:08:27;;;;;;;7.85;4.22;;;;;;;14.71;88.41;100423.19;5053540;28;20506;-80
2021/09/17 06:10:52;;;;;;;6.32;3.47;;;;;;;14.74;88.97;100422.25;5054236;28;20111;-80
2021/09/17 06:13:17;;;;;;;4.93;3.13;;;;;;;14.74;89.01;100416.94;5055440;28;20108;-81
2021/09/17 06:15:43;;;;;;;8.23;3.75;;;;;;;14.74;88.88;100407.19;5038633;28;20041;-80
2021/09/17 06:18:08;;;;;;;6.32;3.58;;;;;;;14.80;88.01;100416.78;5055061;28;20102;-80
2021/09/17 06:20:33;;;;;;;7.18;3.03;;;;;;;14.83;88.16;100422.03;5064857;28;20032;-81
2021/09/17 06:22:59;;;;;;;4.72;3.03;;;;;;;14.93;87.44;100420.00;5029842;28;20037;-80
2021/09/17 06:25:24;;;;;;;5.72;3.33;;;;;;;14.99;87.00;100417.19;5049444;28;20033;-81
2021/09/17 06:27:50;;;;;;;5.90;3.03;;;;;;;15.06;86.27;100418.75;5043166;28;20565;-80
2021/09/17 06:30:17;;;;;;;5.90;2.58;;;;;;;15.10;86.29;100420.44;5050093;28;20551;-80
2021/09/17 06:32:43;;;;;;;6.07;2.63;;;;;;;15.22;85.12;100412.16;5049258;28;20468;-81
2021/09/17 06:35:09;;;;;;;5.70;2.72;;;;;;;15.32;85.15;100410.94;5049786;28;20040;-80
2021/09/17 06:37:34;;;;;;;4.70;2.80;;;;;;;15.41;84.80;100416.97;5049960;28;20029;-81
2021/09/17 06:39:59;;;;;;;6.45;2.50;;;;;;;15.44;84.03;100419.53;5046015;28;20384;-81
2021/09/17 06:42:25;;;;;;;4.82;2.83;;;;;;;15.45;84.00;100402.63;5048870;28;20135;-81
2021/09/17 06:44:50;;;;;;;7.70;2.80;;;;;;;15.62;83.53;100408.38;5046233;28;20099;-81
2021/09/17 06:47:15;;;;;;;5.97;2.65;;;;;;;15.72;82.55;100407.22;5047932;28;20159;-80
2021/09/17 06:49:41;;;;;;;6.65;2.83;;;;;;;15.81;81.46;100406.06;5047108;28;20336;-81
2021/09/17 06:52:06;;;;;;;4.13;2.20;;;;;;;15.95;80.80;100400.31;5047068;28;20040;-81
2021/09/17 06:54:32;;;;;;;3.47;1.80;;;;;;;15.96;79.74;100394.09;5029103;28;20122;-81
2021/09/17 06:56:57;;;;;;;7.60;2.00;;;;;;;16.07;79.80;100399.94;5046134;28;20037;-81
2021/09/17 06:59:22;;;;;;;4.82;1.83;;;;;;;16.11;79.51;100401.59;5047614;28;20047;-81
2021/09/17 07:01:48;;;;;;;3.75;1.95;;;;;;;16.11;78.44;100398.94;5045687;28;20029;-81
2021/09/17 07:04:13;;;;;;;3.97;1.77;;;;;;;16.27;77.75;100402.00;5035273;28;20037;-80
2021/09/17 07:06:38;;;;;;;4.05;1.70;;;;;;;16.38;78.39;100399.00;5048969;28;20041;-80
2021/09/17 07:09:05;;;;;;;5.80;1.67;;;;;;;16.43;77.46;100395.25;5046639;28;20064;-81
2021/09/17 07:11:30;;;;;;;3.13;1.50;;;;;;;16.48;76.68;100396.88;5039053;28;20037;-80
2021/09/17 07:13:55;;;;;;;4.03;1.60;;;;;;;16.48;75.19;100389.78;5047028;28;20093;-80
2021/09/17 07:16:21;;;;;;;4.57;1.48;;;;;;;16.53;75.29;100398.50;5048909;28;20037;-79
2021/09/17 07:18:46;;;;;;;3.25;1.35;;;;;;;16.50;75.55;100425.22;5046311;28;20091;-80
2021/09/17 07:21:11;;;;;;;5.85;1.55;;;;;;;16.47;75.42;100393.34;5046391;28;20167;-79
2021/09/17 07:23:37;;;;;;;3.03;1.42;;;;;;;16.44;75.32;100404.09;5034472;28;20048;-80
2021/09/17 07:26:02;;;;;;;3.25;1.30;;;;;;;16.47;75.14;100398.69;5046142;28;20040;-80
2021/09/17 07:28:31;;;;;;;5.72;1.50;;;;;;;16.46;75.47;100398.75;5042844;28;20148;-79
2021/09/17 07:30:57;;;;;;;3.10;1.50;;;;;;;16.53;75.58;100403.81;5028745;28;20047;-79
2021/09/17 07:33:23;;;;;;;4.13;1.75;;;;;;;16.51;75.32;100405.66;5030132;28;20108;-79
2021/09/17 07:35:48;;;;;;;4.43;1.65;;;;;;;16.46;75.20;100394.28;5047942;28;20451;-80
2021/09/17 07:38:14;;;;;;;4.13;1.80;;;;;;;16.53;74.52;100400.25;5047023;28;20131;-80
2021/09/17 07:40:39;;;;;;;4.63;1.90;;;;;;;16.64;74.71;100401.66;5043555;28;20091;-80
2021/09/17 07:43:04;;;;;;;3.05;1.77;;;;;;;16.72;74.40;100404.09;5045353;28;20029;-79
2021/09/17 07:45:30;;;;;;;3.83;2.00;;;;;;;16.77;73.92;100398.59;5043813;28;20045;-79
2021/09/17 07:47:55;;;;;;;4.13;2.10;;;;;;;16.86;74.31;100395.66;5045169;28;20041;-79
2021/09/17 07:50:22;;;;;;;5.80;2.05;;;;;;;16.86;73.39;100398.31;5026864;28;20040;-79
2021/09/17 07:52:47;;;;;;;14.82;1.95;;;;;;;16.92;73.61;100405.22;5043470;28;20041;-80
2021/09/17 07:55:13;;;;;;;2.50;1.80;;;;;;;16.92;72.91;100402.56;5043366;28;20060;-80
2021/09/17 07:57:39;;;;;;;7.55;2.10;;;;;;;17.09;72.68;100403.72;5042731;28;20041;-80
2021/09/17 08:00:07;;;;;;;6.68;1.70;;;;;;;17.02;72.12;100406.66;5044746;28;20087;-79
2021/09/17 08:02:37;;;;;;;4.63;2.20;;;;;;;17.04;71.56;100416.34;5042693;28;20418;-79
2021/09/17 08:05:03;;;;;;;3.25;1.88;;;;;;;17.22;72.11;100403.28;5043321;28;20036;-80
2021/09/17 08:07:28;;;;;;;5.75;1.75;;;;;;;17.34;71.80;100402.81;5041743;28;20384;-79
2021/09/17 08:09:53;;;;;;;2.78;1.70;;;;;;;17.44;71.25;100412.25;5041275;28;20040;-80
2021/09/17 08:12:18;;;;;;;3.70;2.13;;;;;;;17.33;70.83;100421.56;5044885;28;20044;-79
2021/09/17 08:14:44;;;;;;;4.07;1.40;;;;;;;17.36;70.87;100409.00;5041183;28;20044;-79
2021/09/17 08:17:09;;;;;;;4.38;1.60;;;;;;;17.31;70.31;100413.63;5045083;28;20434;-79
2021/09/17 08:19:35;;;;;;;3.95;1.92;;;;;;;17.28;69.39;100403.06;5042361;28;20041;-80
2021/09/17 08:22:00;;;;;;;4.18;1.30;;;;;;;17.26;69.60;100415.56;5044182;28;20033;-79
2021/09/17 08:24:25;;;;;;;3.75;1.65;;;;;;;17.19;70.61;100414.94;5043413;28;20064;-80
2021/09/17 08:26:52;;;;;;;3.30;1.40;;;;;;;17.13;70.54;100408.94;5034249;28;20041;-80
2021/09/17 08:29:18;;;;;;;4.55;1.65;;;;;;;17.14;70.36;100405.38;5025862;28;20040;-80
2021/09/17 08:31:45;;;;;;;3.00;1.60;;;;;;;17.26;69.52;100412.91;5045377;28;20029;-79
2021/09/17 08:34:11;;;;;;;5.57;1.50;;;;;;;17.43;69.70;100423.00;5036287;28;20094;-80
2021/09/17 08:36:38;;;;;;;4.75;1.60;;;;;;;17.32;69.96;100404.72;5044685;28;20040;-79
2021/09/17 08:39:05;;;;;;;4.00;1.42;;;;;;;17.20;69.92;100411.34;5045220;28;20408;-80
2021/09/17 08:41:31;;;;;;;3.65;1.40;;;;;;;17.11;70.32;100411.66;5026868;28;20506;-79
2021/09/17 08:43:56;;;;;;;4.00;1.60;;;;;;;17.27;70.35;100409.34;5032744;28;20072;-80
2021/09/17 08:46:22;;;;;;;6.93;2.28;;;;;;;17.39;70.16;100416.00;5035481;28;20029;-80
2021/09/17 08:48:51;;;;;;;2.47;1.35;;;;;;;17.25;69.76;100443.19;5023736;28;20048;-80
2021/09/17 08:51:19;;;;;;;3.95;1.60;;;;;;;17.30;69.74;100422.56;5045293;28;20503;-79
2021/09/17 08:53:46;;;;;;;5.32;1.40;;;;;;;17.55;69.87;100422.53;5045062;28;20553;-79
2021/09/17 08:56:16;;;;;;;3.10;1.50;;;;;;;17.53;68.23;100435.06;5045002;28;20036;-80
2021/09/17 08:58:43;;;;;;;5.07;1.67;;;;;;;17.36;68.63;100426.78;5041318;28;20037;-79
2021/09/17 09:01:33;;;;;;;4.72;1.60;;;;;;;17.33;68.98;100419.78;5044987;28;20037;-79
2021/09/17 09:04:02;;;;;;;2.58;1.27;;;;;;;17.35;69.16;100425.94;5044745;28;20048;-79
2021/09/17 09:06:34;;;;;;;2.80;1.40;;;;;;;17.31;69.13;100445.63;5043811;28;20075;-79
2021/09/17 09:08:59;;;;;;;;;;;;;;;17.11;69.80;100426.78;5041328;28;20088;-79
2021/09/17 09:11:26;;;;;;;2.53;1.38;;;;;;;17.08;68.80;100431.31;5043979;28;19917;-80
2021/09/17 09:14:10;;;;;;;3.97;1.60;;;;;;;17.07;69.48;100434.03;5040113;28;20452;-79
2021/09/17 09:16:41;;;;;;;4.28;1.35;;;;;;;16.94;70.09;100432.69;5044748;28;20037;-79
2021/09/17 09:19:28;;;;;;;3.47;1.35;;;;;;;16.84;70.74;100435.66;5042469;28;20145;-80
2021/09/17 09:22:02;;;;;;;2.30;1.13;;;;;;;16.87;71.87;100429.34;5033972;28;20033;-80
2021/09/17 09:24:29;;;;;;;4.32;1.80;;;;;;;16.78;72.05;100443.00;5047610;28;20033;-80
2021/09/17 09:27:16;;;;;;;4.13;1.60;;;;;;;16.72;71.80;100425.41;5045813;28;20120;-80
2021/09/17 09:29:45;;;;;;;3.25;1.10;;;;;;;16.80;72.42;100422.50;5045242;28;20077;-79
2021/09/17 09:32:30;;;;;;;5.20;1.33;;;;;;;16.99;71.82;100423.63;5048031;28;20049;-80
2021/09/17 09:34:58;;;;;;;4.75;1.48;;;;;;;17.04;71.22;100423.47;5048837;28;20041;-80
2021/09/17 09:37:26;;;;;;;5.20;1.45;;;;;;;16.88;72.04;100412.47;5046846;28;20075;-79
2021/09/17 09:40:16;;;;;;;5.43;1.50;;;;;;;16.77;72.51;100427.91;5046758;28;20041;-80
2021/09/17 09:42:44;;;;;;;4.18;1.77;;;;;;;16.55;75.16;100428.59;5034619;28;20032;-79
2021/09/17 09:45:14;;;;;;;4.22;1.20;;;;;;;16.07;78.25;100439.88;5045186;28;20112;-79
2021/09/17 09:47:42;;;;;;;6.13;2.08;;;;;;;15.68;79.45;100445.41;5046343;28;20037;-80
2021/09/17 09:50:22;;;;;;;3.92;1.80;;;;;;;15.56;80.46;100445.75;5045171;28;20041;-80
2021/09/17 09:52:49;;;;;;;4.53;2.05;;;;;;;15.86;80.28;100441.41;5047206;28;20065;-80
2021/09/17 09:55:14;;;;;;;2.85;1.40;;;;;;;16.09;79.40;100430.06;5046273;28;20036;-79
2021/09/17 09:57:42;;;;;;;3.05;1.35;;;;;;;16.17;79.06;100433.34;5046307;28;20223;-80
2021/09/17 10:00:09;;;;;;;2.70;1.45;;;;;;;16.40;79.57;100434.41;5045736;28;20044;-80
2021/09/17 10:02:43;;;;;;;4.40;1.50;;;;;;;16.52;76.60;100442.03;5053517;28;20020;-78
2021/09/17 10:05:11;;;;;;;2.13;1.20;;;;;;;16.52;74.88;100434.03;5056601;28;20039;-80
2021/09/17 10:07:37;;;;;;;3.13;1.40;;;;;;;16.48;73.43;100429.75;5058970;28;20037;-80
2021/09/17 10:10:05;;;;;;;3.08;1.00;;;;;;;16.43;74.27;100424.56;5058644;28;20093;-80
2021/09/17 10:12:30;;;;;;;2.85;0.90;;;;;;;16.40;73.64;100423.75;5051992;28;20041;-80
2021/09/17 10:14:57;;;;;;;4.47;1.20;;;;;;;16.35;73.33;100429.25;5051625;28;20124;-80
2021/09/17 10:17:28;;;;;;;3.50;1.00;;;;;;;16.26;72.92;100432.19;5052133;28;20094;-81
2021/09/17 10:19:55;;;;;;;5.78;1.05;;;;;;;16.38;71.42;100426.50;5049253;28;20033;-80
2021/09/17 10:22:31;;;;;;;2.03;0.80;;;;;;;16.33;71.16;100448.88;5060124;28;20064;-80
2021/09/17 10:25:11;;;;;;;2.65;0.90;;;;;;;16.58;71.06;100432.97;5056146;28;20450;-79
2021/09/17 10:27:39;;;;;;;2.97;0.77;;;;;;;16.83;69.14;100420.59;5049137;28;20044;-79
2021/09/17 10:30:11;;;;;;;2.67;0.82;;;;;;;17.18;67.44;100423.84;5051852;28;20112;-80
2021/09/17 10:32:43;;;;;;;2.45;1.02;;;;;;;17.55;66.45;100432.34;5049858;28;20797;-80
2021/09/17 10:35:22;;;;;;;2.17;0.75;;;;;;;17.66;66.10;100414.16;5050008;28;20079;-80
2021/09/17 10:37:57;;;;;;;3.65;0.80;;;;;;;17.63;64.59;100417.81;5060041;28;20044;-79
2021/09/17 10:40:35;;;;;;;2.72;0.60;;;;;;;18.06;64.06;100418.00;5060298;28;20095;-79
2021/09/17 10:43:10;;;;;;;2.58;0.80;;;;;;;18.24;63.29;100411.06;5050733;28;20029;-80
2021/09/17 10:45:42;;;;;;;2.10;0.80;;;;;;;18.26;62.19;100409.19;5053814;28;20052;-80
2021/09/17 10:48:09;;;;;;;2.47;0.88;;;;;;;18.20;63.43;100420.97;5045230;28;20037;-80
2021/09/17 10:50:38;;;;;;;2.45;0.90;;;;;;;18.18;62.73;100410.38;5048188;28;20029;-79
2021/09/17 10:53:04;;;;;;;3.58;0.80;;;;;;;18.09;63.43;100417.88;5044735;28;20037;-80
2021/09/17 10:55:45;;;;;;;1.83;0.70;;;;;;;18.14;62.46;100416.75;5047786;28;20419;-79
2021/09/17 10:58:26;;;;;;;1.58;0.70;;;;;;;18.08;62.81;100413.47;5048945;28;20033;-79
2021/09/17 11:00:53;;;;;;;3.83;0.80;;;;;;;17.99;62.24;100417.34;5042944;28;20538;-79
2021/09/17 11:03:39;;;;;;;2.05;0.88;;;;;;;17.99;63.14;100424.50;5047196;28;20052;-79
2021/09/17 11:06:25;;;;;;;3.03;0.82;;;;;;;18.12;60.37;100415.94;5054005;28;20037;-79
2021/09/17 11:09:01;;;;;;;2.75;0.90;;;;;;;18.30;60.86;100401.00;5045982;28;20683;-79
2021/09/17 11:11:45;;;;;;;1.25;0.45;;;;;;;18.48;59.08;100423.44;5057710;28;20045;-79
2021/09/17 11:14:14;;;;;;;3.28;0.50;;;;;;;18.40;59.51;100421.06;5055438;28;20052;-80
2021/09/17 11:16:40;;;;;;;3.25;0.52;;;;;;;18.33;58.59;100416.88;5055243;28;20071;-80
2021/09/17 11:19:08;;;;;;;1.50;0.57;;;;;;;18.10;60.78;100414.25;5053609;28;20033;-78
2021/09/17 11:21:42;;;;;;;0.98;0.38;;;;;;;18.05;60.07;100411.78;5050828;28;20656;-79
2021/09/17 11:24:19;;;;;;;1.67;0.60;;;;;;;18.07;60.50;100409.03;5049736;28;20045;-79